createdAt,value
2019-01-20T16:34:14.602Z,13.30
2019-01-20T16:36:43.082Z,13.77
2019-01-20T16:39:11.953Z,14.40
2019-01-20T16:41:39.984Z,13.60
2019-01-20T16:44:06.104Z,15.00
2019-01-20T16:46:31.934Z,14.03
2019-01-20T16:48:57.748Z,13.80
2019-01-20T16:51:23.573Z,19.87
2019-01-20T16:53:49.407Z,14.87
2019-01-20T16:56:15.227Z,14.77
2019-01-20T16:58:41.033Z,15.10
2019-01-20T17:01:06.857Z,14.53
2019-01-20T17:03:35.793Z,16.30
2019-01-20T17:06:03.500Z,15.37
2019-01-20T17:08:29.333Z,15.13
2019-01-20T17:10:55.226Z,15.23
2019-01-20T17:13:23.397Z,14.53
2019-01-20T17:15:49.199Z,15.20
2019-01-20T17:18:15.005Z,15.77
2019-01-20T17:20:42.877Z,15.90
2019-01-20T17:23:08.732Z,15.33
2019-01-20T17:25:34.543Z,15.60
2019-01-20T17:28:00.365Z,15.87
2019-01-20T17:30:34.034Z,15.13
2019-01-20T17:33:00.534Z,17.92
2019-01-20T17:35:26.343Z,16.63
2019-01-20T17:37:52.164Z,16.70
2019-01-20T17:40:23.284Z,16.40
2019-01-20T17:42:49.120Z,17.53
2019-01-20T17:45:36.334Z,16.80
2019-01-20T17:48:02.221Z,16.77
2019-01-20T17:50:30.660Z,18.17
2019-01-20T17:52:56.835Z,20.10
2019-01-20T17:55:22.668Z,19.40
2019-01-20T17:57:48.471Z,19.83
2019-01-20T18:00:24.504Z,19.73
2019-01-20T18:02:52.261Z,19.63
2019-01-20T18:05:20.577Z,18.80
2019-01-20T18:07:46.387Z,20.13
2019-01-20T18:10:14.036Z,19.57
2019-01-20T18:12:39.849Z,21.20
2019-01-20T18:15:12.459Z,22.20
2019-01-20T18:17:38.321Z,21.87
2019-01-20T18:20:08.015Z,19.83
2019-01-20T18:22:35.971Z,19.50
2019-01-20T18:25:01.937Z,19.50
2019-01-20T18:27:27.772Z,19.13
2019-01-20T18:29:53.584Z,19.33
2019-01-20T18:32:19.824Z,18.97
2019-01-20T18:34:45.626Z,19.27
2019-01-20T18:37:14.414Z,19.60
2019-01-20T18:39:40.245Z,20.57
2019-01-20T18:42:06.172Z,19.97
2019-01-20T18:44:31.976Z,18.77
2019-01-20T18:46:57.909Z,20.20
2019-01-20T18:49:23.713Z,20.87
2019-01-20T18:51:49.518Z,19.33
2019-01-20T18:54:15.346Z,20.73
2019-01-20T18:56:41.138Z,19.67
2019-01-20T18:59:06.947Z,21.73
2019-01-20T19:01:33.051Z,18.80
2019-01-20T19:04:04.730Z,20.17
2019-01-20T19:06:30.667Z,20.57
2019-01-20T19:08:56.483Z,18.43
2019-01-20T19:11:24.976Z,19.60
2019-01-20T19:13:50.778Z,17.30
2019-01-20T19:16:16.586Z,17.27
2019-01-20T19:18:42.422Z,17.60
2019-01-20T19:21:08.220Z,18.00
2019-01-20T19:23:34.022Z,16.03
2019-01-20T19:26:01.132Z,16.23
2019-01-20T19:28:26.933Z,16.67
2019-01-20T19:30:52.771Z,17.03
2019-01-20T19:33:22.013Z,17.97
2019-01-20T19:35:50.051Z,16.33
2019-01-20T19:38:15.876Z,16.47
2019-01-20T19:40:41.733Z,16.23
2019-01-20T19:43:07.536Z,16.03
2019-01-20T19:45:33.350Z,17.57
2019-01-20T19:47:59.181Z,18.10
2019-01-20T19:50:24.995Z,16.93
2019-01-20T19:52:50.802Z,19.57
2019-01-20T19:55:19.411Z,17.50
2019-01-20T19:57:45.197Z,18.23
2019-01-20T20:00:18.223Z,18.50
2019-01-20T20:02:44.435Z,18.77
2019-01-20T20:05:12.844Z,17.53
2019-01-20T20:07:43.592Z,19.73
2019-01-20T20:10:12.328Z,19.77
2019-01-20T20:12:38.148Z,19.93
2019-01-20T20:15:10.352Z,20.17
2019-01-20T20:17:37.377Z,20.17
2019-01-20T20:20:07.069Z,19.80
2019-01-20T20:22:32.914Z,19.97
2019-01-20T20:24:58.725Z,20.23
2019-01-20T20:27:24.549Z,21.47
2019-01-20T20:29:52.295Z,21.30
2019-01-20T20:32:22.931Z,20.03
2019-01-20T20:34:53.666Z,20.37
2019-01-20T20:37:16.654Z,20.00
2019-01-20T20:39:42.692Z,20.30
2019-01-20T20:42:10.435Z,20.03
2019-01-20T20:44:36.302Z,20.00
2019-01-20T20:47:04.054Z,20.97
2019-01-20T20:49:29.944Z,21.50
2019-01-20T20:51:56.095Z,20.87
2019-01-20T20:54:21.958Z,22.63
2019-01-20T20:56:47.765Z,21.93
2019-01-20T20:59:14.819Z,22.40
2019-01-20T21:01:41.091Z,22.63
2019-01-20T21:04:06.880Z,21.70
2019-01-20T21:06:32.691Z,22.80
2019-01-20T21:08:58.523Z,22.63
2019-01-20T21:11:24.509Z,24.37
2019-01-20T21:13:52.868Z,23.67
2019-01-20T21:16:18.708Z,24.77
2019-01-20T21:18:49.145Z,23.67
2019-01-20T21:21:14.957Z,24.80
2019-01-20T21:23:40.859Z,24.13
2019-01-20T21:26:07.502Z,24.10
2019-01-20T21:28:36.221Z,24.03
2019-01-20T21:31:02.039Z,23.80
2019-01-20T21:33:27.882Z,26.03
2019-01-20T21:35:53.764Z,24.43
2019-01-20T21:38:19.594Z,27.23
2019-01-20T21:40:45.395Z,27.63
2019-01-20T21:43:11.333Z,28.63
2019-01-20T21:45:37.189Z,28.90
2019-01-20T21:48:03.055Z,27.07
2019-01-20T21:50:29.451Z,28.63
2019-01-20T21:52:55.663Z,28.80
2019-01-20T21:55:23.671Z,28.73
2019-01-20T21:57:49.491Z,28.27
2019-01-20T22:00:21.237Z,28.13
2019-01-20T22:02:47.039Z,29.37
2019-01-20T22:05:14.313Z,28.17
2019-01-20T22:07:40.145Z,26.73
2019-01-20T22:10:11.602Z,26.40
2019-01-20T22:12:37.432Z,26.40
2019-01-20T22:15:06.072Z,26.53
2019-01-20T22:17:34.475Z,25.80
2019-01-20T22:20:00.298Z,27.37
2019-01-20T22:22:26.359Z,25.63
2019-01-20T22:24:52.198Z,25.07
2019-01-20T22:27:18.025Z,25.63
2019-01-20T22:29:43.881Z,25.33
2019-01-20T22:32:09.735Z,25.53
2019-01-20T22:34:35.541Z,25.50
2019-01-20T22:37:03.325Z,25.90
2019-01-20T22:39:31.363Z,24.30
2019-01-20T22:41:57.251Z,24.00
2019-01-20T22:44:24.859Z,25.33
2019-01-20T22:46:50.695Z,25.87
2019-01-20T22:49:16.549Z,25.37
2019-01-20T22:51:44.535Z,26.17
2019-01-20T22:54:10.384Z,25.33
2019-01-20T22:56:36.194Z,25.63
2019-01-20T22:59:02.046Z,26.83
2019-01-20T23:01:30.810Z,26.77
2019-01-20T23:03:56.615Z,27.80
2019-01-20T23:06:22.540Z,26.07
2019-01-20T23:08:48.371Z,27.93
2019-01-20T23:11:14.177Z,24.37
2019-01-20T23:13:41.985Z,26.13
2019-01-20T23:16:07.817Z,26.83
2019-01-20T23:18:33.689Z,25.03
2019-01-20T23:20:59.472Z,26.43
2019-01-20T23:23:25.459Z,25.00
2019-01-20T23:25:51.275Z,25.33
2019-01-20T23:28:17.313Z,25.77
2019-01-20T23:30:43.238Z,25.97
2019-01-20T23:33:09.137Z,25.90
2019-01-20T23:35:34.944Z,26.77
2019-01-20T23:38:00.845Z,28.77
2019-01-20T23:40:26.651Z,26.13
2019-01-20T23:42:54.410Z,25.50
2019-01-20T23:45:20.241Z,27.03
2019-01-20T23:47:46.157Z,27.00
2019-01-20T23:50:15.718Z,27.70
2019-01-20T23:52:46.065Z,27.53
2019-01-20T23:55:12.353Z,26.70
2019-01-20T23:57:38.799Z,27.90
